Time;durP1;ratioP1;P1;durP2;ratioP2;P2;SDS_P1;SDS_P2;PMS_P1;PMS_P2;Temp;Humidity;BMP_temperature;BMP_pressure;BME280_temperature;BME280_humidity;BME280_pressure;Samples;Min_cycle;Max_cycle;Signal;HPM_P1;HPM_P2
2024/01/14 00:00:08;;;;;;;19.75;3.45;;;;;;;1.23;100.00;99996.44;5079621;28;20449;-80
2024/01/14 00:02:38;;;;;;;17.50;2.38;;;;;;;1.22;100.00;99994.78;5068837;28;20921;-80
2024/01/14 00:05:11;;;;;;;17.58;2.30;;;;;;;1.19;100.00;100000.63;5061576;28;20774;-80
2024/01/14 00:07:42;;;;;;;19.27;2.20;;;;;;;1.23;100.00;99995.59;5082159;28;20424;-80
2024/01/14 00:10:13;;;;;;;19.75;2.67;;;;;;;1.24;100.00;99999.91;5067131;28;20419;-79
2024/01/14 00:12:47;;;;;;;21.08;2.70;;;;;;;1.14;100.00;99995.97;5069990;28;20949;-80
2024/01/14 00:15:17;;;;;;;23.42;3.00;;;;;;;1.11;100.00;99990.25;5069927;28;20426;-80
2024/01/14 00:17:52;;;;;;;21.60;2.97;;;;;;;1.16;100.00;99999.22;5068577;28;20445;-80
2024/01/14 00:20:25;;;;;;;16.23;2.30;;;;;;;1.23;100.00;99995.59;5061979;28;20424;-79
2024/01/14 00:22:58;;;;;;;19.35;2.40;;;;;;;1.25;100.00;99983.59;5081380;28;20421;-80
2024/01/14 00:25:27;;;;;;;17.23;2.28;;;;;;;1.40;100.00;99988.47;5094945;27;20418;-80
2024/01/14 00:27:55;;;;;;;17.85;2.33;;;;;;;1.39;100.00;99984.16;5080816;28;20410;-80
2024/01/14 00:30:28;;;;;;;19.88;2.47;;;;;;;1.35;100.00;99977.63;5096922;27;20440;-80
2024/01/14 00:33:09;;;;;;;15.48;1.95;;;;;;;1.40;100.00;99975.06;5080647;28;20437;-80
2024/01/14 00:35:42;;;;;;;15.63;2.13;;;;;;;1.44;100.00;99981.59;5082853;28;20414;-80
2024/01/14 00:38:15;;;;;;;22.10;2.58;;;;;;;1.34;100.00;99974.16;5079496;28;20427;-79
2024/01/14 00:40:43;;;;;;;15.93;2.20;;;;;;;1.27;100.00;99980.69;5079892;28;20425;-79
2024/01/14 00:43:16;;;;;;;16.73;2.22;;;;;;;1.31;100.00;99976.47;5082230;28;20422;-80
2024/01/14 00:45:50;;;;;;;13.50;2.10;;;;;;;1.22;100.00;99981.41;5083453;28;20446;-80
2024/01/14 00:48:24;;;;;;;16.83;2.17;;;;;;;1.25;100.00;99988.16;5068097;28;20425;-80
2024/01/14 00:51:00;;;;;;;16.75;2.10;;;;;;;1.13;100.00;99972.06;5078892;28;20751;-79
2024/01/14 00:53:35;;;;;;;14.75;2.72;;;;;;;1.01;100.00;99962.19;5080375;28;20429;-80
2024/01/14 00:56:04;;;;;;;12.90;2.10;;;;;;;0.97;100.00;99962.91;5093974;28;20414;-80
2024/01/14 00:58:37;;;;;;;21.70;2.90;;;;;;;0.92;100.00;99965.44;5067287;28;20446;-79
2024/01/14 01:01:10;;;;;;;21.58;2.67;;;;;;;0.79;100.00;99961.16;5082272;28;21125;-79
2024/01/14 01:03:40;;;;;;;18.48;2.35;;;;;;;0.75;100.00;99958.13;5084440;28;20410;-79
2024/01/14 01:06:13;;;;;;;19.05;2.50;;;;;;;0.77;100.00;99952.53;5081510;28;20418;-80
2024/01/14 01:08:41;;;;;;;16.17;2.33;;;;;;;0.74;100.00;99959.16;5079022;28;20425;-79
2024/01/14 01:11:16;;;;;;;17.50;2.35;;;;;;;0.83;100.00;99947.06;5079339;28;20429;-79
2024/01/14 01:13:49;;;;;;;16.50;2.25;;;;;;;0.69;100.00;99945.63;5082434;28;20924;-79
2024/01/14 01:16:22;;;;;;;15.75;2.42;;;;;;;0.67;100.00;99942.41;5083005;28;20426;-79
2024/01/14 01:18:57;;;;;;;20.20;2.53;;;;;;;0.66;100.00;99936.22;5068822;28;20452;-79
2024/01/14 01:21:30;;;;;;;17.10;2.45;;;;;;;0.66;100.00;99944.25;5077231;28;20424;-80
2024/01/14 01:24:03;;;;;;;16.63;2.97;;;;;;;0.55;100.00;99954.94;5067848;28;20434;-80
2024/01/14 01:26:32;;;;;;;13.40;2.08;;;;;;;0.43;100.00;99947.72;5081029;28;20878;-80
2024/01/14 01:29:00;;;;;;;21.73;2.83;;;;;;;0.41;100.00;99946.31;5077033;28;20417;-80
2024/01/14 01:31:30;;;;;;;14.43;2.23;;;;;;;0.50;100.00;99951.09;5080075;28;20422;-79
2024/01/14 01:34:00;;;;;;;20.23;2.78;;;;;;;0.55;100.00;99942.38;5079510;28;20409;-79
2024/01/14 01:36:28;;;;;;;20.58;2.47;;;;;;;0.75;100.00;99935.88;5080099;28;20412;-79
2024/01/14 01:38:56;;;;;;;22.02;2.55;;;;;;;0.81;100.00;99938.41;5080303;28;20410;-79
2024/01/14 01:41:30;;;;;;;23.15;2.97;;;;;;;0.66;100.00;99940.75;5096051;27;20406;-79
2024/01/14 01:43:58;;;;;;;13.82;2.08;;;;;;;0.73;100.00;99938.78;5068587;28;20424;-79
2024/01/14 01:46:32;;;;;;;13.70;2.03;;;;;;;0.76;100.00;99941.00;5079220;28;20780;-80
2024/01/14 01:49:02;;;;;;;15.20;1.88;;;;;;;0.93;100.00;99937.63;5074137;28;20404;-79
2024/01/14 01:51:31;;;;;;;16.10;2.38;;;;;;;0.81;100.00;99937.63;5078901;28;20432;-79
2024/01/14 01:54:05;;;;;;;18.50;2.30;;;;;;;0.77;100.00;99929.22;5081018;28;20427;-79
2024/01/14 01:56:40;;;;;;;19.10;2.53;;;;;;;0.75;100.00;99928.66;5065298;28;20450;-79
2024/01/14 01:59:13;;;;;;;14.95;1.80;;;;;;;0.78;100.00;99922.03;5079396;28;20418;-79
2024/01/14 02:01:45;;;;;;;16.00;2.10;;;;;;;0.80;100.00;99917.22;5078799;28;20421;-79
2024/01/14 02:04:20;;;;;;;20.67;3.08;;;;;;;0.77;100.00;99912.34;5079624;28;20430;-79
2024/01/14 02:06:55;;;;;;;16.80;2.50;;;;;;;0.65;100.00;99905.13;5059374;28;20434;-79
2024/01/14 02:09:24;;;;;;;14.82;2.10;;;;;;;0.54;100.00;99902.44;5080580;28;20430;-80
2024/01/14 02:11:59;;;;;;;15.63;2.20;;;;;;;0.54;100.00;99905.13;5078505;28;20427;-80
2024/01/14 02:14:33;;;;;;;11.40;2.05;;;;;;;0.56;100.00;99909.19;5078058;28;20421;-79
2024/01/14 02:17:10;;;;;;;15.77;2.47;;;;;;;0.73;100.00;99895.91;5080245;28;20427;-79
2024/01/14 02:19:46;;;;;;;22.30;2.37;;;;;;;0.62;100.00;99896.75;5077146;28;20455;-79
2024/01/14 02:22:24;;;;;;;15.23;2.05;;;;;;;0.50;100.00;99907.47;5079000;28;20412;-79
2024/01/14 02:24:59;;;;;;;17.40;2.17;;;;;;;0.60;100.00;99898.84;5073521;28;20768;-79
2024/01/14 02:27:27;;;;;;;21.02;2.50;;;;;;;0.59;100.00;99899.91;5078412;28;20921;-79
2024/01/14 02:29:57;;;;;;;15.18;1.95;;;;;;;0.51;100.00;99893.00;5068266;28;20983;-79
2024/01/14 02:32:30;;;;;;;18.17;2.30;;;;;;;0.52;100.00;99896.53;5066841;28;20433;-79
2024/01/14 02:35:05;;;;;;;20.08;2.22;;;;;;;0.63;100.00;99891.16;5077409;28;20427;-80
2024/01/14 02:37:33;;;;;;;18.83;2.00;;;;;;;0.57;100.00;99897.44;5079968;28;20458;-80
2024/01/14 02:40:09;;;;;;;15.18;2.13;;;;;;;0.55;100.00;99886.16;5077719;28;20420;-79
2024/01/14 02:42:42;;;;;;;14.07;2.05;;;;;;;0.64;100.00;99881.28;5065425;28;20435;-79
2024/01/14 02:45:11;;;;;;;15.52;1.92;;;;;;;0.50;100.00;99873.47;5082107;28;20434;-79
2024/01/14 02:47:44;;;;;;;12.20;1.80;;;;;;;0.44;100.00;99886.97;5078718;28;20430;-79
2024/01/14 02:50:12;;;;;;;18.73;1.83;;;;;;;0.39;100.00;99876.97;5066540;28;20431;-80
2024/01/14 02:52:48;;;;;;;12.20;1.50;;;;;;;0.36;100.00;99884.63;5066504;28;20427;-79
2024/01/14 02:55:20;;;;;;;10.95;1.70;;;;;;;0.33;100.00;99875.19;5081212;28;20416;-80
2024/01/14 02:57:54;;;;;;;12.00;1.85;;;;;;;0.35;100.00;99873.13;5075500;28;20414;-79
2024/01/14 03:00:23;;;;;;;11.05;2.00;;;;;;;0.31;100.00;99872.75;5076951;28;20411;-79
2024/01/14 03:02:56;;;;;;;13.75;1.60;;;;;;;0.36;100.00;99874.75;5077351;28;20410;-79
2024/01/14 03:05:25;;;;;;;14.68;1.63;;;;;;;0.30;100.00;99873.00;5066613;28;20519;-79
2024/01/14 03:07:58;;;;;;;12.45;1.40;;;;;;;0.31;100.00;99878.09;5080049;28;20416;-79
2024/01/14 03:10:27;;;;;;;11.93;1.85;;;;;;;0.23;100.00;99872.28;5077486;28;20458;-79
2024/01/14 03:12:56;;;;;;;17.88;1.88;;;;;;;0.22;100.00;99867.97;5069414;28;20425;-79
2024/01/14 03:15:26;;;;;;;10.25;1.77;;;;;;;0.25;100.00;99870.19;5083557;28;20425;-79
2024/01/14 03:17:59;;;;;;;13.27;1.60;;;;;;;0.20;100.00;99862.06;5082343;28;20447;-80
2024/01/14 03:20:27;;;;;;;14.27;1.80;;;;;;;0.16;100.00;99862.50;5096134;28;20421;-79
2024/01/14 03:23:00;;;;;;;11.25;1.67;;;;;;;0.15;100.00;99865.41;5081729;28;20427;-79
2024/01/14 03:25:35;;;;;;;16.02;2.10;;;;;;;0.08;100.00;99862.03;5060902;28;20427;-79
2024/01/14 03:28:09;;;;;;;13.85;2.13;;;;;;;0.06;100.00;99859.59;5081904;28;20421;-79
2024/01/14 03:30:44;;;;;;;12.38;1.48;;;;;;;0.15;100.00;99863.56;5078693;28;20413;-79
2024/01/14 03:33:12;;;;;;;9.50;1.57;;;;;;;0.18;100.00;99867.66;5077858;28;20453;-79
2024/01/14 03:35:41;;;;;;;14.32;1.75;;;;;;;0.36;100.00;99869.41;5082762;28;20436;-79
2024/01/14 03:38:14;;;;;;;11.63;1.48;;;;;;;0.40;100.00;99869.75;5068812;28;20433;-79
2024/01/14 03:40:49;;;;;;;17.73;2.05;;;;;;;0.50;100.00;99872.66;5078426;28;20789;-79
2024/01/14 03:43:22;;;;;;;10.57;1.60;;;;;;;0.49;100.00;99873.72;5094780;28;20422;-79
2024/01/14 03:45:55;;;;;;;11.95;1.42;;;;;;;0.66;100.00;99871.97;5082280;28;20417;-79
2024/01/14 03:48:26;;;;;;;8.52;1.38;;;;;;;0.44;100.00;99876.25;5097922;27;20937;-79
2024/01/14 03:50:55;;;;;;;11.00;1.50;;;;;;;0.65;100.00;99864.16;5082718;28;20407;-79
2024/01/14 03:53:25;;;;;;;9.10;1.23;;;;;;;0.62;100.00;99867.28;5082739;28;20416;-79
2024/01/14 03:56:00;;;;;;;14.88;1.85;;;;;;;0.75;100.00;99866.25;5096014;28;20425;-79
2024/01/14 03:58:33;;;;;;;7.13;1.48;;;;;;;0.55;100.00;99869.28;5078076;28;20503;-79
2024/01/14 04:01:06;;;;;;;12.40;1.30;;;;;;;0.57;100.00;99875.22;5082857;28;20415;-79
2024/01/14 04:03:37;;;;;;;11.15;1.35;;;;;;;0.53;100.00;99876.75;5081637;28;20409;-79
2024/01/14 04:06:10;;;;;;;12.67;1.70;;;;;;;0.41;100.00;99864.16;5081035;28;21158;-79
2024/01/14 04:08:43;;;;;;;10.23;1.33;;;;;;;0.40;100.00;99870.56;5082577;28;20425;-79
2024/01/14 04:11:13;;;;;;;10.35;1.33;;;;;;;0.30;100.00;99873.81;5079034;28;20449;-79
2024/01/14 04:13:46;;;;;;;10.83;1.60;;;;;;;0.22;100.00;99876.00;5060971;28;20424;-79
2024/01/14 04:16:22;;;;;;;12.82;1.30;;;;;;;0.27;100.00;99876.13;5077135;28;20422;-79
2024/01/14 04:18:55;;;;;;;7.75;1.23;;;;;;;0.30;100.00;99881.03;5064727;28;20420;-79
2024/01/14 04:21:24;;;;;;;14.02;1.85;;;;;;;0.40;100.00;99881.28;5083791;28;20410;-79
2024/01/14 04:24:02;;;;;;;11.45;1.95;;;;;;;0.47;100.00;99873.94;5078410;28;20418;-79
2024/01/14 04:26:39;;;;;;;10.38;1.30;;;;;;;0.40;100.00;99873.25;5069548;28;20426;-79
2024/01/14 04:29:15;;;;;;;10.60;1.50;;;;;;;0.39;100.00;99865.41;5096425;28;20422;-79
2024/01/14 04:31:48;;;;;;;12.80;1.77;;;;;;;0.34;100.00;99864.25;5062788;28;20417;-79
2024/01/14 04:34:19;;;;;;;12.57;1.67;;;;;;;0.31;100.00;99866.59;5081715;28;23252;-79
2024/01/14 04:36:47;;;;;;;12.57;1.50;;;;;;;0.40;100.00;99873.25;5061699;28;21241;-79
2024/01/14 04:39:20;;;;;;;9.35;1.38;;;;;;;0.53;100.00;99877.53;5080925;28;20431;-79
2024/01/14 04:41:54;;;;;;;13.10;1.85;;;;;;;0.45;100.00;99869.88;5079551;28;20428;-79
2024/01/14 04:44:22;;;;;;;12.57;1.67;;;;;;;0.43;100.00;99872.78;5069529;28;20894;-79
2024/01/14 04:46:51;;;;;;;13.88;1.85;;;;;;;0.34;100.00;99877.63;5082063;28;20406;-81
2024/01/14 04:49:26;;;;;;;13.60;1.40;;;;;;;0.32;100.00;99865.56;5081689;28;20437;-79
2024/01/14 04:52:00;;;;;;;10.15;1.20;;;;;;;0.28;100.00;99870.56;5080635;28;20418;-79
2024/01/14 04:54:34;;;;;;;10.35;1.45;;;;;;;0.40;100.00;99862.53;5081513;28;20418;-79
2024/01/14 04:57:04;;;;;;;15.43;2.20;;;;;;;0.27;100.00;99866.25;5083577;28;21124;-79
2024/01/14 04:59:38;;;;;;;9.38;2.25;;;;;;;0.18;100.00;99873.00;5077815;28;20774;-79
2024/01/14 05:02:12;;;;;;;14.00;2.28;;;;;;;0.20;100.00;99865.53;5079056;28;20410;-79
2024/01/14 05:04:45;;;;;;;12.68;2.20;;;;;;;0.26;100.00;99871.81;5066816;28;21055;-79
2024/01/14 05:07:13;;;;;;;16.25;2.30;;;;;;;0.50;100.00;99864.63;5096745;28;20422;-79
2024/01/14 05:09:48;;;;;;;17.43;2.17;;;;;;;0.34;100.00;99860.78;5061013;28;20417;-79
2024/01/14 05:12:23;;;;;;;11.85;1.80;;;;;;;0.30;100.00;99864.97;5068097;28;20430;-79
2024/01/14 05:14:52;;;;;;;9.88;1.85;;;;;;;0.37;100.00;99860.31;5070517;28;20406;-79
2024/01/14 05:17:27;;;;;;;15.55;2.28;;;;;;;0.34;100.00;99860.78;5082278;28;20422;-79
2024/01/14 05:20:00;;;;;;;12.07;1.75;;;;;;;0.43;100.00;99861.22;5079774;28;20512;-79
2024/01/14 05:22:34;;;;;;;10.15;1.75;;;;;;;0.53;100.00;99852.66;5067543;28;20425;-79
2024/01/14 05:25:02;;;;;;;11.27;1.50;;;;;;;0.36;100.00;99849.84;5081736;28;20906;-79
2024/01/14 05:27:37;;;;;;;9.15;1.55;;;;;;;0.33;100.00;99843.91;5078631;28;20421;-79
2024/01/14 05:30:13;;;;;;;14.70;1.83;;;;;;;0.37;100.00;99851.47;5092905;27;20422;-79
2024/01/14 05:32:41;;;;;;;12.23;1.58;;;;;;;0.32;100.00;99852.19;5066869;28;20425;-79
2024/01/14 05:35:14;;;;;;;13.75;2.00;;;;;;;0.39;100.00;99849.38;5061188;28;20427;-79
2024/01/14 05:37:48;;;;;;;9.10;1.38;;;;;;;0.38;100.00;99851.25;5060690;28;20422;-79
2024/01/14 05:40:19;;;;;;;10.85;1.77;;;;;;;0.45;100.00;99851.13;5092207;27;20422;-79
2024/01/14 05:42:55;;;;;;;9.63;1.53;;;;;;;0.41;100.00;99845.41;5077101;28;21378;-79
2024/01/14 05:45:31;;;;;;;15.47;1.50;;;;;;;0.40;100.00;99835.78;5080536;28;20759;-79
2024/01/14 05:48:05;;;;;;;16.95;1.75;;;;;;;0.39;100.00;99830.63;5079009;28;20417;-79
2024/01/14 05:50:34;;;;;;;10.25;1.23;;;;;;;0.24;100.00;99834.59;5077866;28;20414;-79
2024/01/14 05:53:07;;;;;;;14.80;1.70;;;;;;;0.25;100.00;99824.69;5076179;28;20422;-79
2024/01/14 05:55:35;;;;;;;16.23;1.70;;;;;;;0.33;100.00;99832.38;5061626;28;20430;-79
2024/01/14 05:58:09;;;;;;;10.90;1.65;;;;;;;0.23;100.00;99834.84;5076454;28;20452;-79
2024/01/14 06:00:38;;;;;;;9.20;1.30;;;;;;;0.26;100.00;99827.16;5078505;28;20406;-79
2024/01/14 06:03:11;;;;;;;11.63;1.40;;;;;;;0.41;100.00;99836.56;5074380;28;20519;-79
2024/01/14 06:05:44;;;;;;;12.48;1.85;;;;;;;0.39;100.00;99828.78;5078742;28;20428;-79
2024/01/14 06:08:17;;;;;;;11.88;1.48;;;;;;;0.48;100.00;99834.59;5079244;28;20438;-79
2024/01/14 06:10:51;;;;;;;13.50;1.70;;;;;;;0.55;100.00;99834.47;5077160;28;20771;-79
2024/01/14 06:13:25;;;;;;;10.80;1.45;;;;;;;0.50;100.00;99835.19;5068031;28;20871;-79
2024/01/14 06:15:58;;;;;;;18.30;1.70;;;;;;;0.53;100.00;99840.06;5062233;28;20423;-79
2024/01/14 06:18:32;;;;;;;12.05;2.03;;;;;;;0.53;100.00;99834.72;5079406;28;20412;-79
2024/01/14 06:21:06;;;;;;;11.35;1.63;;;;;;;0.60;100.00;99826.56;5072816;28;20425;-79
2024/01/14 06:23:41;;;;;;;9.25;1.52;;;;;;;0.64;100.00;99817.81;5056555;28;21029;-79
2024/01/14 06:26:16;;;;;;;11.98;1.65;;;;;;;0.57;100.00;99825.16;5065373;28;20422;-79
2024/01/14 06:28:46;;;;;;;12.93;1.73;;;;;;;0.55;100.00;99819.22;5079725;28;20428;-79
2024/01/14 06:31:20;;;;;;;10.65;1.42;;;;;;;0.65;100.00;99819.44;5067316;28;20418;-79
2024/01/14 06:33:53;;;;;;;18.25;1.90;;;;;;;0.64;100.00;99815.13;5076862;28;20425;-79
2024/01/14 06:36:22;;;;;;;15.13;2.00;;;;;;;0.79;100.00;99820.00;5076585;28;20402;-79
2024/01/14 06:38:50;;;;;;;12.20;1.45;;;;;;;0.74;100.00;99813.72;5078711;28;20800;-79
2024/01/14 06:41:24;;;;;;;11.23;1.50;;;;;;;0.76;100.00;99816.97;5065001;28;20414;-78
2024/01/14 06:43:54;;;;;;;14.18;1.40;;;;;;;0.71;100.00;99814.22;5082219;28;20415;-79
2024/01/14 06:46:28;;;;;;;14.50;1.75;;;;;;;0.66;100.00;99813.03;5076167;28;20422;-79
2024/01/14 06:49:01;;;;;;;10.57;1.42;;;;;;;0.82;100.00;99813.38;5081041;28;20428;-79
2024/01/14 06:51:29;;;;;;;12.15;1.52;;;;;;;0.83;100.00;99812.31;5082640;28;21082;-79
2024/01/14 06:53:57;;;;;;;11.20;1.30;;;;;;;0.90;100.00;99810.31;5079469;28;20416;-78
2024/01/14 06:56:25;;;;;;;15.43;1.70;;;;;;;0.83;100.00;99809.63;5099863;27;20953;-79
2024/01/14 06:59:00;;;;;;;14.60;1.83;;;;;;;0.81;100.00;99815.22;5096623;27;20453;-79
2024/01/14 07:01:28;;;;;;;12.03;1.37;;;;;;;0.72;100.00;99811.28;5064741;28;20426;-79
2024/01/14 07:04:01;;;;;;;12.38;1.50;;;;;;;0.76;100.00;99811.63;5070931;28;20433;-79
2024/01/14 07:06:35;;;;;;;11.52;1.30;;;;;;;0.74;100.00;99806.50;5081455;28;20432;-79
2024/01/14 07:09:04;;;;;;;10.30;1.67;;;;;;;0.89;100.00;99811.34;5081870;28;20780;-79
2024/01/14 07:11:37;;;;;;;10.37;1.30;;;;;;;0.76;100.00;99811.63;5079191;28;20425;-79
2024/01/14 07:14:12;;;;;;;9.88;1.80;;;;;;;0.74;100.00;99808.38;5070036;28;20423;-79
2024/01/14 07:16:40;;;;;;;12.63;1.75;;;;;;;0.83;100.00;99810.44;5084962;28;20418;-79
2024/01/14 07:19:08;;;;;;;14.80;1.77;;;;;;;0.81;100.00;99817.09;5070036;28;20428;-79
2024/01/14 07:21:37;;;;;;;13.00;1.50;;;;;;;0.86;100.00;99819.88;5066345;28;20423;-79
2024/01/14 07:24:05;;;;;;;13.70;1.77;;;;;;;1.00;100.00;99815.88;5069967;28;20417;-79
2024/01/14 07:26:38;;;;;;;10.95;1.42;;;;;;;0.88;100.00;99815.06;5096256;28;20418;-79
2024/01/14 07:29:13;;;;;;;15.68;1.92;;;;;;;0.90;100.00;99812.16;5082517;28;20420;-79
2024/01/14 07:31:46;;;;;;;8.52;1.27;;;;;;;0.88;100.00;99815.06;5082931;28;20762;-79
2024/01/14 07:34:19;;;;;;;9.38;1.10;;;;;;;0.83;100.00;99817.69;5066206;28;20955;-79
2024/01/14 07:36:52;;;;;;;13.02;1.70;;;;;;;0.88;100.00;99809.72;5094453;27;20421;-79
2024/01/14 07:39:20;;;;;;;11.50;1.60;;;;;;;0.88;100.00;99814.28;5078663;28;20436;-79
2024/01/14 07:41:54;;;;;;;12.52;2.00;;;;;;;0.89;100.00;99814.03;5082216;28;20416;-79
2024/01/14 07:44:28;;;;;;;11.57;1.58;;;;;;;0.75;100.00;99813.50;5097118;27;20452;-79
2024/01/14 07:47:01;;;;;;;12.95;1.67;;;;;;;0.80;100.00;99823.47;5069884;28;20426;-79
2024/01/14 07:49:34;;;;;;;11.45;1.63;;;;;;;0.90;100.00;99818.34;5083309;28;20430;-79
2024/01/14 07:52:08;;;;;;;14.57;1.63;;;;;;;0.92;100.00;99818.91;5061687;28;20425;-79
2024/01/14 07:54:41;;;;;;;11.07;1.63;;;;;;;0.91;100.00;99816.47;5080588;28;20419;-79
2024/01/14 07:57:14;;;;;;;13.38;1.38;;;;;;;0.84;100.00;99812.09;5077758;28;20438;-79
2024/01/14 07:59:49;;;;;;;13.45;1.60;;;;;;;0.93;100.00;99817.06;5081299;28;20423;-79
2024/01/14 08:02:22;;;;;;;10.30;1.58;;;;;;;1.03;100.00;99822.63;5072562;28;20431;-79
2024/01/14 08:04:50;;;;;;;10.10;1.50;;;;;;;0.91;100.00;99817.31;5075243;28;20416;-79
2024/01/14 08:07:19;;;;;;;12.38;1.50;;;;;;;0.98;100.00;99817.16;5076943;28;20415;-79
2024/01/14 08:09:52;;;;;;;11.05;1.58;;;;;;;1.00;100.00;99823.09;5080815;28;20418;-79
2024/01/14 08:12:26;;;;;;;13.75;1.90;;;;;;;0.95;100.00;99813.09;5079491;28;20416;-79
2024/01/14 08:15:00;;;;;;;16.20;1.87;;;;;;;0.96;100.00;99814.72;5068125;28;20419;-79
2024/01/14 08:17:33;;;;;;;13.68;1.45;;;;;;;1.10;100.00;99807.22;5079118;28;20419;-78
2024/01/14 08:20:08;;;;;;;12.02;1.67;;;;;;;0.96;100.00;99812.03;5082511;28;21230;-80
2024/01/14 08:22:41;;;;;;;12.45;1.88;;;;;;;1.02;100.00;99805.72;5080594;28;20982;-79
2024/01/14 08:25:15;;;;;;;11.38;1.80;;;;;;;0.98;100.00;99801.06;5079993;28;20814;-78
2024/01/14 08:27:48;;;;;;;10.82;1.50;;;;;;;1.08;100.00;99803.97;5075127;28;20425;-76
2024/01/14 08:30:23;;;;;;;15.18;2.00;;;;;;;0.95;100.00;99805.06;5081546;28;20792;-78
2024/01/14 08:32:57;;;;;;;14.63;2.00;;;;;;;0.92;100.00;99804.72;5081489;28;20429;-78
2024/01/14 08:35:25;;;;;;;12.98;1.67;;;;;;;0.88;100.00;99804.38;5079339;28;20419;-78
2024/01/14 08:37:58;;;;;;;14.88;1.85;;;;;;;0.85;100.00;99802.16;5078227;28;20786;-78
2024/01/14 08:40:32;;;;;;;10.80;1.60;;;;;;;0.91;100.00;99801.22;5065602;28;20466;-79
2024/01/14 08:43:00;;;;;;;12.68;1.73;;;;;;;0.97;100.00;99800.28;5065759;28;20442;-80
2024/01/14 08:45:34;;;;;;;14.00;1.60;;;;;;;1.00;100.00;99805.16;5059784;28;20429;-79
2024/01/14 08:48:03;;;;;;;12.25;1.80;;;;;;;0.91;100.00;99806.59;5081005;28;20427;-80
2024/01/14 08:50:31;;;;;;;11.90;1.75;;;;;;;0.99;100.00;99792.00;5078484;28;20415;-79
2024/01/14 08:53:00;;;;;;;13.10;1.92;;;;;;;1.03;100.00;99806.53;5068756;28;20436;-80
2024/01/14 08:55:33;;;;;;;11.70;1.80;;;;;;;1.00;100.00;99796.31;5065370;28;20443;-79
2024/01/14 08:58:06;;;;;;;14.77;1.67;;;;;;;1.01;100.00;99803.31;5062837;28;21007;-79
2024/01/14 09:00:41;;;;;;;9.50;1.80;;;;;;;0.99;100.00;99800.03;5063684;28;20442;-79
2024/01/14 09:03:14;;;;;;;13.20;1.70;;;;;;;0.99;100.00;99802.72;5075243;28;20444;-79
2024/01/14 09:05:42;;;;;;;15.57;3.92;;;;;;;1.11;100.00;99797.31;5064585;28;20427;-79
2024/01/14 09:08:10;;;;;;;7.93;1.37;;;;;;;1.26;100.00;99804.84;5088087;27;20778;-79
2024/01/14 09:10:46;;;;;;;10.38;1.60;;;;;;;1.23;100.00;99802.63;5074795;28;21233;-78
2024/01/14 09:13:20;;;;;;;11.55;1.35;;;;;;;1.20;100.00;99809.25;5078122;28;20450;-78
2024/01/14 09:15:49;;;;;;;9.00;1.63;;;;;;;1.25;100.00;99804.00;5080748;28;20428;-79
2024/01/14 09:18:22;;;;;;;9.48;1.48;;;;;;;1.38;100.00;99802.91;5076015;28;20434;-79
2024/01/14 09:20:50;;;;;;;9.73;1.50;;;;;;;1.35;100.00;99806.06;5076420;28;22445;-79
2024/01/14 09:23:24;;;;;;;10.03;1.63;;;;;;;1.40;100.00;99800.81;5059252;28;20431;-79
2024/01/14 09:25:57;;;;;;;8.63;1.60;;;;;;;1.46;100.00;99813.22;5077003;28;20441;-79
2024/01/14 09:28:30;;;;;;;13.97;1.93;;;;;;;1.55;100.00;99815.53;5078225;28;20432;-79
2024/01/14 09:31:00;;;;;;;10.45;2.10;;;;;;;1.55;100.00;99810.16;5079867;28;20999;-79
2024/01/14 09:33:33;;;;;;;12.70;1.85;;;;;;;1.56;100.00;99814.47;5076928;28;20421;-80
2024/01/14 09:36:07;;;;;;;7.13;1.77;;;;;;;1.61;100.00;99812.69;5077921;28;21092;-80
2024/01/14 09:38:41;;;;;;;9.60;1.70;;;;;;;1.54;100.00;99809.34;5061638;28;20433;-79
2024/01/14 09:41:29;;;;;;;9.05;2.00;;;;;;;1.53;100.00;99810.41;5078791;28;20434;-80
2024/01/14 09:44:04;;;;;;;11.10;1.80;;;;;;;1.61;100.00;99801.97;5078679;28;20426;-79
2024/01/14 09:46:39;;;;;;;8.25;1.75;;;;;;;1.52;100.00;99800.75;5064860;28;20428;-80
2024/01/14 09:49:13;;;;;;;14.35;1.70;;;;;;;1.43;100.00;99802.19;5083046;28;20428;-80
2024/01/14 09:51:42;;;;;;;8.77;1.80;;;;;;;1.37;100.00;99801.28;5060246;28;20796;-80
2024/01/14 09:54:18;;;;;;;8.27;1.88;;;;;;;1.40;100.00;99805.34;5078673;28;20417;-80
2024/01/14 09:56:49;;;;;;;12.52;1.95;;;;;;;1.30;100.00;99798.75;5057796;28;20435;-79
2024/01/14 09:59:20;;;;;;;9.25;1.92;;;;;;;1.29;100.00;99796.31;5078220;28;23057;-80
2024/01/14 10:01:55;;;;;;;8.57;1.80;;;;;;;1.37;100.00;99782.53;5091928;28;20477;-79
2024/01/14 10:04:29;;;;;;;14.05;2.10;;;;;;;1.50;100.00;99787.56;5073673;28;20420;-79
2024/01/14 10:07:03;;;;;;;6.70;2.00;;;;;;;1.44;100.00;99780.50;5055759;28;20810;-79
2024/01/14 10:09:36;;;;;;;10.70;2.50;;;;;;;1.57;100.00;99790.09;5061530;28;20430;-80
2024/01/14 10:12:10;;;;;;;10.55;2.55;;;;;;;1.94;100.00;99780.78;5019611;28;20414;-79
2024/01/14 10:14:44;;;;;;;11.63;2.90;;;;;;;1.94;100.00;99765.47;5060795;28;20434;-80
2024/01/14 10:17:18;;;;;;;11.25;2.83;;;;;;;2.15;100.00;99769.28;5058315;28;20434;-80
2024/01/14 10:19:52;;;;;;;13.18;2.42;;;;;;;2.15;100.00;99769.28;5044072;28;20433;-81
2024/01/14 10:22:26;;;;;;;12.98;2.60;;;;;;;2.16;100.00;99772.78;5045798;28;20419;-81
2024/01/14 10:24:59;;;;;;;12.90;2.60;;;;;;;2.04;100.00;99754.91;5038916;28;20438;-80
2024/01/14 10:27:28;;;;;;;9.32;2.60;;;;;;;1.98;100.00;99755.06;5045056;28;20769;-80
2024/01/14 10:30:01;;;;;;;10.32;2.60;;;;;;;1.92;100.00;99748.81;5036957;28;22007;-80
2024/01/14 10:32:36;;;;;;;12.23;2.60;;;;;;;1.91;100.00;99741.81;5044080;28;20425;-80
2024/01/14 10:35:12;;;;;;;11.23;2.50;;;;;;;1.83;100.00;99751.09;5048184;28;20412;-80
2024/01/14 10:37:41;;;;;;;9.65;2.63;;;;;;;1.81;100.00;99747.84;5053766;28;20778;-80
2024/01/14 10:40:14;;;;;;;15.75;3.10;;;;;;;1.84;100.00;99742.00;5046251;28;20429;-80
2024/01/14 10:42:48;;;;;;;11.90;2.83;;;;;;;1.96;100.00;99741.91;5046707;28;20425;-81
2024/01/14 10:45:21;;;;;;;11.93;3.42;;;;;;;1.89;100.00;99733.19;5044973;28;20433;-81
2024/01/14 10:47:58;;;;;;;13.10;3.40;;;;;;;2.04;100.00;99727.25;5031581;28;20433;-80
2024/01/14 10:50:33;;;;;;;11.77;3.50;;;;;;;2.06;100.00;99729.69;5053765;28;20412;-81
2024/01/14 10:53:16;;;;;;;10.27;2.92;;;;;;;1.94;100.00;99729.78;5040113;28;21002;-81
2024/01/14 10:55:48;;;;;;;13.43;2.72;;;;;;;1.87;100.00;99725.41;5036288;28;20441;-80
2024/01/14 10:58:25;;;;;;;9.60;2.70;;;;;;;1.69;100.00;99736.38;5064030;28;20440;-80
2024/01/14 11:01:00;;;;;;;12.85;2.88;;;;;;;1.70;100.00;99730.78;5054194;28;20473;-81
2024/01/14 11:03:30;;;;;;;7.47;2.55;;;;;;;1.68;100.00;99719.47;5038142;28;21356;-81
2024/01/14 11:05:59;;;;;;;9.52;2.88;;;;;;;1.69;100.00;99722.97;5054302;28;20433;-81
2024/01/14 11:08:27;;;;;;;10.32;2.50;;;;;;;1.64;100.00;99712.16;5065323;28;20418;-80
2024/01/14 11:10:56;;;;;;;10.48;2.50;;;;;;;1.67;100.00;99709.81;5077291;28;20784;-80
2024/01/14 11:13:39;;;;;;;13.52;4.03;;;;;;;1.64;100.00;99704.94;5065875;28;20412;-81
2024/01/14 11:16:20;;;;;;;7.70;2.50;;;;;;;1.60;100.00;99698.44;5077713;28;20424;-79
2024/01/14 11:18:59;;;;;;;13.00;2.90;;;;;;;1.73;100.00;99691.09;5075914;28;20429;-81
2024/01/14 11:21:43;;;;;;;8.20;2.67;;;;;;;1.76;100.00;99694.13;5067700;28;20418;-81
2024/01/14 11:24:16;;;;;;;11.07;3.30;;;;;;;1.74;100.00;99685.50;5073895;28;21182;-80
2024/01/14 11:26:44;;;;;;;11.43;3.00;;;;;;;1.79;100.00;99680.19;5093523;28;20437;-80
2024/01/14 11:29:13;;;;;;;9.80;3.28;;;;;;;1.89;100.00;99676.84;5079327;28;20420;-80
2024/01/14 11:32:05;;;;;;;10.50;3.15;;;;;;;1.77;100.00;99681.50;5067911;28;20920;-81
2024/01/14 11:35:02;;;;;;;9.20;3.10;;;;;;;1.68;100.00;99667.72;5082353;28;20986;-81
2024/01/14 11:37:40;;;;;;;13.32;3.60;;;;;;;1.66;100.00;99651.88;5064733;28;20958;-82
2024/01/14 11:40:16;;;;;;;12.85;3.00;;;;;;;1.81;100.00;99655.81;5062136;28;20445;-81
2024/01/14 11:42:49;;;;;;;8.98;3.50;;;;;;;1.67;100.00;99653.50;5081499;28;20417;-81
2024/01/14 11:45:37;;;;;;;13.40;3.33;;;;;;;1.70;100.00;99636.09;5069192;28;21271;-81
2024/01/14 11:48:12;;;;;;;8.57;3.10;;;;;;;1.68;100.00;99636.31;5068852;28;20426;-81
2024/01/14 11:50:50;;;;;;;10.60;3.22;;;;;;;1.69;100.00;99629.91;5065977;28;20424;-81